sensor_id;sensor_type;location;lat;lon;timestamp;temperature;humidity
39899;DHT22;25571;47.876;10.642;2023-01-16T00:00:19;4.80;93.60
39899;DHT22;25571;47.876;10.642;2023-01-16T00:02:45;4.80;93.60
39899;DHT22;25571;47.876;10.642;2023-01-16T00:05:10;4.70;93.50
39899;DHT22;25571;47.876;10.642;2023-01-16T00:07:36;4.70;93.50
39899;DHT22;25571;47.876;10.642;2023-01-16T00:10:03;4.70;93.50
39899;DHT22;25571;47.876;10.642;2023-01-16T00:12:29;4.70;93.40
39899;DHT22;25571;47.876;10.642;2023-01-16T00:14:55;4.70;93.50
39899;DHT22;25571;47.876;10.642;2023-01-16T00:17:20;4.60;93.60
39899;DHT22;25571;47.876;10.642;2023-01-16T00:19:46;4.60;93.70
39899;DHT22;25571;47.876;10.642;2023-01-16T00:22:12;4.60;93.70
39899;DHT22;25571;47.876;10.642;2023-01-16T00:24:37;4.50;93.80
39899;DHT22;25571;47.876;10.642;2023-01-16T00:27:03;4.40;93.90
39899;DHT22;25571;47.876;10.642;2023-01-16T00:29:28;4.30;94.00
39899;DHT22;25571;47.876;10.642;2023-01-16T00:31:54;4.20;94.20
39899;DHT22;25571;47.876;10.642;2023-01-16T00:34:19;4.20;94.30
39899;DHT22;25571;47.876;10.642;2023-01-16T00:36:45;4.20;94.40
39899;DHT22;25571;47.876;10.642;2023-01-16T00:39:10;4.10;94.50
39899;DHT22;25571;47.876;10.642;2023-01-16T00:41:36;4.10;94.60
39899;DHT22;25571;47.876;10.642;2023-01-16T00:44:02;4.20;94.50
39899;DHT22;25571;47.876;10.642;2023-01-16T00:46:28;4.20;94.40
39899;DHT22;25571;47.876;10.642;2023-01-16T00:48:55;4.10;94.60
39899;DHT22;25571;47.876;10.642;2023-01-16T00:51:21;4.10;94.80
39899;DHT22;25571;47.876;10.642;2023-01-16T00:53:47;4.10;94.90
39899;DHT22;25571;47.876;10.642;2023-01-16T00:56:13;4.20;94.80
39899;DHT22;25571;47.876;10.642;2023-01-16T00:58:38;4.20;94.80
39899;DHT22;25571;47.876;10.642;2023-01-16T01:01:05;4.20;94.80
39899;DHT22;25571;47.876;10.642;2023-01-16T01:03:31;4.20;94.70
39899;DHT22;25571;47.876;10.642;2023-01-16T01:05:56;4.20;94.60
39899;DHT22;25571;47.876;10.642;2023-01-16T01:08:22;4.30;94.50
39899;DHT22;25571;47.876;10.642;2023-01-16T01:10:48;4.30;94.40
39899;DHT22;25571;47.876;10.642;2023-01-16T01:13:14;4.30;94.30
39899;DHT22;25571;47.876;10.642;2023-01-16T01:15:39;4.20;94.50
39899;DHT22;25571;47.876;10.642;2023-01-16T01:18:05;4.30;94.40
39899;DHT22;25571;47.876;10.642;2023-01-16T01:20:31;4.30;94.40
39899;DHT22;25571;47.876;10.642;2023-01-16T01:22:56;4.30;94.20
39899;DHT22;25571;47.876;10.642;2023-01-16T01:25:22;4.30;93.80
39899;DHT22;25571;47.876;10.642;2023-01-16T01:27:48;4.30;93.80
39899;DHT22;25571;47.876;10.642;2023-01-16T01:30:13;4.30;94.00
39899;DHT22;25571;47.876;10.642;2023-01-16T01:32:39;4.20;94.30
39899;DHT22;25571;47.876;10.642;2023-01-16T01:35:08;4.10;94.60
39899;DHT22;25571;47.876;10.642;2023-01-16T01:37:34;4.00;94.80
39899;DHT22;25571;47.876;10.642;2023-01-16T01:40:01;4.00;95.00
39899;DHT22;25571;47.876;10.642;2023-01-16T01:42:26;3.90;94.70
39899;DHT22;25571;47.876;10.642;2023-01-16T01:45:18;3.80;95.10
39899;DHT22;25571;47.876;10.642;2023-01-16T01:48:04;3.80;95.20
39899;DHT22;25571;47.876;10.642;2023-01-16T01:51:00;3.80;95.20
39899;DHT22;25571;47.876;10.642;2023-01-16T01:53:41;3.80;95.40
39899;DHT22;25571;47.876;10.642;2023-01-16T01:56:19;3.90;95.40
39899;DHT22;25571;47.876;10.642;2023-01-16T01:58:49;3.90;95.20
39899;DHT22;25571;47.876;10.642;2023-01-16T02:01:16;3.90;95.10
39899;DHT22;25571;47.876;10.642;2023-01-16T02:03:46;3.90;95.10
39899;DHT22;25571;47.876;10.642;2023-01-16T02:06:17;3.90;95.10
39899;DHT22;25571;47.876;10.642;2023-01-16T02:08:44;3.90;95.00
39899;DHT22;25571;47.876;10.642;2023-01-16T02:11:17;3.90;95.10
39899;DHT22;25571;47.876;10.642;2023-01-16T02:14:07;3.90;95.00
39899;DHT22;25571;47.876;10.642;2023-01-16T02:16:34;3.80;95.00
39899;DHT22;25571;47.876;10.642;2023-01-16T02:19:48;3.80;94.90
39899;DHT22;25571;47.876;10.642;2023-01-16T02:22:41;3.80;95.10
39899;DHT22;25571;47.876;10.642;2023-01-16T02:28:10;3.90;95.20
39899;DHT22;25571;47.876;10.642;2023-01-16T02:39:01;3.90;94.90
39899;DHT22;25571;47.876;10.642;2023-01-16T02:49:38;3.90;94.70
39899;DHT22;25571;47.876;10.642;2023-01-16T02:52:10;3.80;94.50
39899;DHT22;25571;47.876;10.642;2023-01-16T02:54:46;3.80;94.70
39899;DHT22;25571;47.876;10.642;2023-01-16T02:57:18;3.90;94.60
39899;DHT22;25571;47.876;10.642;2023-01-16T02:59:44;3.80;94.50
39899;DHT22;25571;47.876;10.642;2023-01-16T03:02:10;3.80;94.60
39899;DHT22;25571;47.876;10.642;2023-01-16T03:12:47;3.90;94.20
39899;DHT22;25571;47.876;10.642;2023-01-16T03:26:25;3.50;94.40
39899;DHT22;25571;47.876;10.642;2023-01-16T03:31:49;3.50;94.60
39899;DHT22;25571;47.876;10.642;2023-01-16T03:35:15;3.50;94.60
39899;DHT22;25571;47.876;10.642;2023-01-16T03:39:51;3.30;94.20
39899;DHT22;25571;47.876;10.642;2023-01-16T03:42:25;3.20;94.30
39899;DHT22;25571;47.876;10.642;2023-01-16T03:44:57;3.20;94.40
39899;DHT22;25571;47.876;10.642;2023-01-16T03:47:31;3.20;94.30
39899;DHT22;25571;47.876;10.642;2023-01-16T03:50:00;3.20;94.40
39899;DHT22;25571;47.876;10.642;2023-01-16T03:52:34;3.20;94.50
39899;DHT22;25571;47.876;10.642;2023-01-16T03:55:17;3.20;94.50
39899;DHT22;25571;47.876;10.642;2023-01-16T03:57:46;3.20;94.40
39899;DHT22;25571;47.876;10.642;2023-01-16T04:00:16;3.10;94.70
39899;DHT22;25571;47.876;10.642;2023-01-16T04:02:48;3.00;94.90
39899;DHT22;25571;47.876;10.642;2023-01-16T04:05:20;3.00;94.60
39899;DHT22;25571;47.876;10.642;2023-01-16T04:07:54;3.00;94.50
39899;DHT22;25571;47.876;10.642;2023-01-16T04:10:27;3.00;94.40
39899;DHT22;25571;47.876;10.642;2023-01-16T04:13:01;2.90;94.80
39899;DHT22;25571;47.876;10.642;2023-01-16T04:15:29;2.90;95.00
39899;DHT22;25571;47.876;10.642;2023-01-16T04:17:56;2.90;95.00
39899;DHT22;25571;47.876;10.642;2023-01-16T04:20:23;2.90;94.80
39899;DHT22;25571;47.876;10.642;2023-01-16T04:22:50;2.90;94.50
39899;DHT22;25571;47.876;10.642;2023-01-16T04:25:17;2.90;94.40
39899;DHT22;25571;47.876;10.642;2023-01-16T04:27:44;2.90;94.50
39899;DHT22;25571;47.876;10.642;2023-01-16T04:30:10;2.90;94.50
39899;DHT22;25571;47.876;10.642;2023-01-16T04:32:36;2.80;94.70
39899;DHT22;25571;47.876;10.642;2023-01-16T04:35:02;2.80;94.80
39899;DHT22;25571;47.876;10.642;2023-01-16T04:37:27;2.80;94.40
39899;DHT22;25571;47.876;10.642;2023-01-16T04:39:53;2.80;94.50
39899;DHT22;25571;47.876;10.642;2023-01-16T04:42:19;2.80;94.40
39899;DHT22;25571;47.876;10.642;2023-01-16T04:44:45;2.70;94.40
39899;DHT22;25571;47.876;10.642;2023-01-16T04:47:11;2.70;94.40
39899;DHT22;25571;47.876;10.642;2023-01-16T04:49:37;2.70;94.30
39899;DHT22;25571;47.876;10.642;2023-01-16T04:52:03;2.60;94.30
39899;DHT22;25571;47.876;10.642;2023-01-16T04:54:29;2.60;94.20
39899;DHT22;25571;47.876;10.642;2023-01-16T04:56:54;2.60;94.00
39899;DHT22;25571;47.876;10.642;2023-01-16T04:59:20;2.60;93.90
39899;DHT22;25571;47.876;10.642;2023-01-16T05:01:46;2.60;94.00
39899;DHT22;25571;47.876;10.642;2023-01-16T05:04:13;2.50;94.10
39899;DHT22;25571;47.876;10.642;2023-01-16T05:06:38;2.50;93.90
39899;DHT22;25571;47.876;10.642;2023-01-16T05:09:05;2.60;93.80
39899;DHT22;25571;47.876;10.642;2023-01-16T05:11:32;2.50;93.80
39899;DHT22;25571;47.876;10.642;2023-01-16T05:13:58;2.50;94.10
39899;DHT22;25571;47.876;10.642;2023-01-16T05:16:24;2.60;94.30
39899;DHT22;25571;47.876;10.642;2023-01-16T05:18:50;2.50;94.20
39899;DHT22;25571;47.876;10.642;2023-01-16T05:21:16;2.50;94.20
39899;DHT22;25571;47.876;10.642;2023-01-16T05:23:41;2.60;94.30
39899;DHT22;25571;47.876;10.642;2023-01-16T05:26:07;2.60;94.20
39899;DHT22;25571;47.876;10.642;2023-01-16T05:28:34;2.60;94.10
39899;DHT22;25571;47.876;10.642;2023-01-16T05:31:00;2.60;94.00
39899;DHT22;25571;47.876;10.642;2023-01-16T05:33:26;2.60;94.00
39899;DHT22;25571;47.876;10.642;2023-01-16T05:35:52;2.70;93.90
39899;DHT22;25571;47.876;10.642;2023-01-16T05:38:19;2.70;93.60
39899;DHT22;25571;47.876;10.642;2023-01-16T05:40:44;2.60;93.40
39899;DHT22;25571;47.876;10.642;2023-01-16T05:43:10;2.60;93.50
39899;DHT22;25571;47.876;10.642;2023-01-16T05:45:36;2.60;92.80
39899;DHT22;25571;47.876;10.642;2023-01-16T05:48:02;2.50;92.60
39899;DHT22;25571;47.876;10.642;2023-01-16T05:50:27;2.50;92.80
39899;DHT22;25571;47.876;10.642;2023-01-16T05:52:53;2.50;92.90
39899;DHT22;25571;47.876;10.642;2023-01-16T05:55:19;2.50;93.10
39899;DHT22;25571;47.876;10.642;2023-01-16T05:57:44;2.50;93.50
39899;DHT22;25571;47.876;10.642;2023-01-16T06:00:10;2.50;93.70
39899;DHT22;25571;47.876;10.642;2023-01-16T06:02:36;2.50;93.40
39899;DHT22;25571;47.876;10.642;2023-01-16T06:05:02;2.50;93.00
39899;DHT22;25571;47.876;10.642;2023-01-16T06:07:28;2.50;92.70
39899;DHT22;25571;47.876;10.642;2023-01-16T06:09:53;2.50;92.50
39899;DHT22;25571;47.876;10.642;2023-01-16T06:12:19;2.40;92.40
39899;DHT22;25571;47.876;10.642;2023-01-16T06:14:45;2.40;92.70
39899;DHT22;25571;47.876;10.642;2023-01-16T06:17:12;2.40;92.40
39899;DHT22;25571;47.876;10.642;2023-01-16T06:19:42;2.40;92.50
39899;DHT22;25571;47.876;10.642;2023-01-16T06:22:07;2.30;92.60
39899;DHT22;25571;47.876;10.642;2023-01-16T06:24:33;2.30;92.90
39899;DHT22;25571;47.876;10.642;2023-01-16T06:26:59;2.20;93.10
39899;DHT22;25571;47.876;10.642;2023-01-16T06:29:25;2.20;93.40
39899;DHT22;25571;47.876;10.642;2023-01-16T06:31:50;2.20;93.20
39899;DHT22;25571;47.876;10.642;2023-01-16T06:34:16;2.20;92.80
39899;DHT22;25571;47.876;10.642;2023-01-16T06:36:43;2.20;92.70
39899;DHT22;25571;47.876;10.642;2023-01-16T06:39:11;2.10;93.30
39899;DHT22;25571;47.876;10.642;2023-01-16T06:41:37;2.10;93.30
39899;DHT22;25571;47.876;10.642;2023-01-16T06:44:03;2.00;93.70
39899;DHT22;25571;47.876;10.642;2023-01-16T06:46:29;2.00;93.10
39899;DHT22;25571;47.876;10.642;2023-01-16T06:48:54;1.90;93.30
39899;DHT22;25571;47.876;10.642;2023-01-16T06:51:20;1.90;93.30
39899;DHT22;25571;47.876;10.642;2023-01-16T06:53:46;1.90;93.10
39899;DHT22;25571;47.876;10.642;2023-01-16T06:56:11;1.90;93.00
39899;DHT22;25571;47.876;10.642;2023-01-16T06:58:37;1.90;93.30
39899;DHT22;25571;47.876;10.642;2023-01-16T07:01:03;1.80;93.40
39899;DHT22;25571;47.876;10.642;2023-01-16T07:03:28;1.80;93.50
39899;DHT22;25571;47.876;10.642;2023-01-16T07:05:54;1.80;93.40
39899;DHT22;25571;47.876;10.642;2023-01-16T07:08:19;1.80;93.00
39899;DHT22;25571;47.876;10.642;2023-01-16T07:10:45;1.90;93.40
39899;DHT22;25571;47.876;10.642;2023-01-16T07:13:11;1.90;93.50
39899;DHT22;25571;47.876;10.642;2023-01-16T07:15:37;1.80;93.60
39899;DHT22;25571;47.876;10.642;2023-01-16T07:18:21;1.90;93.60
39899;DHT22;25571;47.876;10.642;2023-01-16T07:21:10;1.80;93.40
39899;DHT22;25571;47.876;10.642;2023-01-16T07:23:58;1.90;93.20
39899;DHT22;25571;47.876;10.642;2023-01-16T07:26:25;1.90;93.00
39899;DHT22;25571;47.876;10.642;2023-01-16T07:28:53;2.00;93.00
39899;DHT22;25571;47.876;10.642;2023-01-16T07:31:19;2.00;93.10
39899;DHT22;25571;47.876;10.642;2023-01-16T07:33:45;2.00;92.90
39899;DHT22;25571;47.876;10.642;2023-01-16T07:36:10;2.00;92.90
39899;DHT22;25571;47.876;10.642;2023-01-16T07:38:36;2.00;93.00
39899;DHT22;25571;47.876;10.642;2023-01-16T07:41:02;2.00;93.30
39899;DHT22;25571;47.876;10.642;2023-01-16T07:43:27;2.00;93.20
39899;DHT22;25571;47.876;10.642;2023-01-16T07:45:53;2.00;93.20
39899;DHT22;25571;47.876;10.642;2023-01-16T07:48:19;2.00;93.40
39899;DHT22;25571;47.876;10.642;2023-01-16T07:50:53;2.00;93.20
39899;DHT22;25571;47.876;10.642;2023-01-16T07:53:20;2.00;93.30
39899;DHT22;25571;47.876;10.642;2023-01-16T07:55:53;2.00;93.10
39899;DHT22;25571;47.876;10.642;2023-01-16T07:58:20;2.00;93.50
39899;DHT22;25571;47.876;10.642;2023-01-16T08:00:46;2.00;94.00
39899;DHT22;25571;47.876;10.642;2023-01-16T08:03:12;2.10;94.30
39899;DHT22;25571;47.876;10.642;2023-01-16T08:05:39;2.30;94.40
39899;DHT22;25571;47.876;10.642;2023-01-16T08:08:04;2.70;94.10
39899;DHT22;25571;47.876;10.642;2023-01-16T08:10:30;3.20;93.70
39899;DHT22;25571;47.876;10.642;2023-01-16T08:12:56;3.70;93.10
39899;DHT22;25571;47.876;10.642;2023-01-16T08:15:21;4.20;92.30
39899;DHT22;25571;47.876;10.642;2023-01-16T08:17:47;4.70;91.30
39899;DHT22;25571;47.876;10.642;2023-01-16T08:20:12;5.10;90.70
39899;DHT22;25571;47.876;10.642;2023-01-16T08:22:45;5.60;90.10
39899;DHT22;25571;47.876;10.642;2023-01-16T08:25:12;5.90;89.50
39899;DHT22;25571;47.876;10.642;2023-01-16T08:27:38;6.30;87.90
39899;DHT22;25571;47.876;10.642;2023-01-16T08:30:05;6.50;87.30
39899;DHT22;25571;47.876;10.642;2023-01-16T08:32:31;6.70;86.40
39899;DHT22;25571;47.876;10.642;2023-01-16T08:34:57;6.90;85.30
39899;DHT22;25571;47.876;10.642;2023-01-16T08:37:22;7.10;84.30
39899;DHT22;25571;47.876;10.642;2023-01-16T08:39:48;7.10;84.20
39899;DHT22;25571;47.876;10.642;2023-01-16T08:42:13;7.10;84.00
39899;DHT22;25571;47.876;10.642;2023-01-16T08:44:57;7.00;84.40
39899;DHT22;25571;47.876;10.642;2023-01-16T08:47:42;7.00;84.30
39899;DHT22;25571;47.876;10.642;2023-01-16T08:50:26;6.90;84.10
39899;DHT22;25571;47.876;10.642;2023-01-16T08:53:10;6.80;84.30
39899;DHT22;25571;47.876;10.642;2023-01-16T08:55:36;6.70;84.30
39899;DHT22;25571;47.876;10.642;2023-01-16T08:58:01;6.60;85.10
39899;DHT22;25571;47.876;10.642;2023-01-16T09:00:27;6.40;85.50
39899;DHT22;25571;47.876;10.642;2023-01-16T09:02:54;6.20;86.20
39899;DHT22;25571;47.876;10.642;2023-01-16T09:05:22;6.00;86.20
39899;DHT22;25571;47.876;10.642;2023-01-16T09:07:48;5.90;85.70
39899;DHT22;25571;47.876;10.642;2023-01-16T09:10:15;5.80;86.80
39899;DHT22;25571;47.876;10.642;2023-01-16T09:12:41;5.80;87.30
39899;DHT22;25571;47.876;10.642;2023-01-16T09:15:25;5.70;86.80
39899;DHT22;25571;47.876;10.642;2023-01-16T09:17:51;5.80;86.20
39899;DHT22;25571;47.876;10.642;2023-01-16T09:20:17;5.70;87.70
39899;DHT22;25571;47.876;10.642;2023-01-16T09:22:42;5.70;89.00
39899;DHT22;25571;47.876;10.642;2023-01-16T09:25:08;5.70;88.50
39899;DHT22;25571;47.876;10.642;2023-01-16T09:27:34;5.80;88.40
39899;DHT22;25571;47.876;10.642;2023-01-16T09:30:00;5.90;89.50
39899;DHT22;25571;47.876;10.642;2023-01-16T09:32:26;6.00;88.70
39899;DHT22;25571;47.876;10.642;2023-01-16T09:34:51;6.00;87.30
39899;DHT22;25571;47.876;10.642;2023-01-16T09:37:20;6.20;87.10
39899;DHT22;25571;47.876;10.642;2023-01-16T09:39:47;6.30;86.90
39899;DHT22;25571;47.876;10.642;2023-01-16T09:45:18;6.30;87.00
39899;DHT22;25571;47.876;10.642;2023-01-16T09:47:48;6.40;86.70
39899;DHT22;25571;47.876;10.642;2023-01-16T09:50:44;6.40;85.40
39899;DHT22;25571;47.876;10.642;2023-01-16T09:53:18;6.40;86.30
39899;DHT22;25571;47.876;10.642;2023-01-16T09:56:03;6.50;86.30
39899;DHT22;25571;47.876;10.642;2023-01-16T09:59:01;6.50;87.20
39899;DHT22;25571;47.876;10.642;2023-01-16T10:01:42;6.70;87.60
39899;DHT22;25571;47.876;10.642;2023-01-16T10:04:28;6.80;87.40
39899;DHT22;25571;47.876;10.642;2023-01-16T10:10:18;7.00;85.30
39899;DHT22;25571;47.876;10.642;2023-01-16T10:15:34;7.00;84.70
39899;DHT22;25571;47.876;10.642;2023-01-16T10:23:31;7.00;84.90
39899;DHT22;25571;47.876;10.642;2023-01-16T10:26:07;7.00;84.20
39899;DHT22;25571;47.876;10.642;2023-01-16T10:31:31;6.90;85.40
39899;DHT22;25571;47.876;10.642;2023-01-16T10:36:44;6.80;85.10
39899;DHT22;25571;47.876;10.642;2023-01-16T10:39:12;6.80;83.60
39899;DHT22;25571;47.876;10.642;2023-01-16T10:41:46;6.80;84.50
39899;DHT22;25571;47.876;10.642;2023-01-16T10:44:40;6.90;83.80
39899;DHT22;25571;47.876;10.642;2023-01-16T10:47:32;6.90;84.00
39899;DHT22;25571;47.876;10.642;2023-01-16T10:50:19;6.90;84.90
39899;DHT22;25571;47.876;10.642;2023-01-16T10:52:46;7.00;85.80
39899;DHT22;25571;47.876;10.642;2023-01-16T10:55:13;7.00;81.80
39899;DHT22;25571;47.876;10.642;2023-01-16T10:57:48;7.00;83.20
39899;DHT22;25571;47.876;10.642;2023-01-16T11:00:20;7.10;82.20
39899;DHT22;25571;47.876;10.642;2023-01-16T11:02:50;7.20;81.20
39899;DHT22;25571;47.876;10.642;2023-01-16T11:05:27;7.20;80.40
39899;DHT22;25571;47.876;10.642;2023-01-16T11:07:55;7.20;80.50
39899;DHT22;25571;47.876;10.642;2023-01-16T11:10:22;7.20;79.10
39899;DHT22;25571;47.876;10.642;2023-01-16T11:12:48;7.20;80.20
39899;DHT22;25571;47.876;10.642;2023-01-16T11:15:33;7.30;83.00
39899;DHT22;25571;47.876;10.642;2023-01-16T11:18:23;7.40;85.10
39899;DHT22;25571;47.876;10.642;2023-01-16T11:20:55;7.40;84.50
39899;DHT22;25571;47.876;10.642;2023-01-16T11:23:25;7.50;85.20
39899;DHT22;25571;47.876;10.642;2023-01-16T11:25:53;7.50;84.70
39899;DHT22;25571;47.876;10.642;2023-01-16T11:28:30;7.60;84.50
39899;DHT22;25571;47.876;10.642;2023-01-16T11:31:18;7.60;83.20
39899;DHT22;25571;47.876;10.642;2023-01-16T11:33:47;7.60;83.10
39899;DHT22;25571;47.876;10.642;2023-01-16T11:36:17;7.70;81.60
39899;DHT22;25571;47.876;10.642;2023-01-16T11:38:45;7.70;79.50
39899;DHT22;25571;47.876;10.642;2023-01-16T11:41:11;7.70;82.40
39899;DHT22;25571;47.876;10.642;2023-01-16T11:43:41;7.70;81.40
39899;DHT22;25571;47.876;10.642;2023-01-16T11:46:34;7.70;80.10
39899;DHT22;25571;47.876;10.642;2023-01-16T11:49:11;7.70;78.80
39899;DHT22;25571;47.876;10.642;2023-01-16T11:51:38;7.70;79.50
39899;DHT22;25571;47.876;10.642;2023-01-16T11:54:14;7.70;76.90
39899;DHT22;25571;47.876;10.642;2023-01-16T11:56:53;7.70;77.10
39899;DHT22;25571;47.876;10.642;2023-01-16T12:00:03;7.70;75.90
39899;DHT22;25571;47.876;10.642;2023-01-16T12:05:35;7.70;72.10
39899;DHT22;25571;47.876;10.642;2023-01-16T12:11:15;7.70;72.30
39899;DHT22;25571;47.876;10.642;2023-01-16T12:22:45;7.60;76.90
39899;DHT22;25571;47.876;10.642;2023-01-16T12:28:21;7.60;73.00
39899;DHT22;25571;47.876;10.642;2023-01-16T12:39:25;7.60;75.30
39899;DHT22;25571;47.876;10.642;2023-01-16T12:45:17;7.50;77.40
39899;DHT22;25571;47.876;10.642;2023-01-16T12:51:10;7.50;74.20
39899;DHT22;25571;47.876;10.642;2023-01-16T12:58:37;7.50;74.90
39899;DHT22;25571;47.876;10.642;2023-01-16T13:01:16;7.50;74.30
39899;DHT22;25571;47.876;10.642;2023-01-16T13:03:59;7.50;76.20
39899;DHT22;25571;47.876;10.642;2023-01-16T13:06:57;7.50;78.60
39899;DHT22;25571;47.876;10.642;2023-01-16T13:09:43;7.40;78.20
39899;DHT22;25571;47.876;10.642;2023-01-16T13:12:21;7.40;77.80
39899;DHT22;25571;47.876;10.642;2023-01-16T13:15:26;7.40;73.20
39899;DHT22;25571;47.876;10.642;2023-01-16T13:18:19;7.40;74.90
39899;DHT22;25571;47.876;10.642;2023-01-16T13:20:45;7.40;73.70
39899;DHT22;25571;47.876;10.642;2023-01-16T13:26:09;7.30;73.80
39899;DHT22;25571;47.876;10.642;2023-01-16T13:28:46;7.30;75.20
39899;DHT22;25571;47.876;10.642;2023-01-16T13:31:31;7.20;75.30
39899;DHT22;25571;47.876;10.642;2023-01-16T13:34:09;7.10;74.20
39899;DHT22;25571;47.876;10.642;2023-01-16T13:42:04;7.10;75.00
39899;DHT22;25571;47.876;10.642;2023-01-16T13:44:35;7.10;77.20
39899;DHT22;25571;47.876;10.642;2023-01-16T13:47:27;7.10;75.30
39899;DHT22;25571;47.876;10.642;2023-01-16T13:50:06;7.10;76.30
39899;DHT22;25571;47.876;10.642;2023-01-16T13:52:32;7.10;76.50
39899;DHT22;25571;47.876;10.642;2023-01-16T13:55:02;7.10;78.80
39899;DHT22;25571;47.876;10.642;2023-01-16T13:57:32;7.10;77.10
39899;DHT22;25571;47.876;10.642;2023-01-16T14:00:01;7.00;76.10
39899;DHT22;25571;47.876;10.642;2023-01-16T14:08:24;7.10;75.90
39899;DHT22;25571;47.876;10.642;2023-01-16T14:11:28;7.10;77.10
39899;DHT22;25571;47.876;10.642;2023-01-16T14:14:20;7.00;76.00
39899;DHT22;25571;47.876;10.642;2023-01-16T14:17:05;7.00;78.20
39899;DHT22;25571;47.876;10.642;2023-01-16T14:22:23;7.00;77.30
39899;DHT22;25571;47.876;10.642;2023-01-16T14:24:55;7.00;78.70
39899;DHT22;25571;47.876;10.642;2023-01-16T14:27:28;7.00;80.00
39899;DHT22;25571;47.876;10.642;2023-01-16T14:29:59;7.00;81.00
39899;DHT22;25571;47.876;10.642;2023-01-16T14:32:30;6.90;81.40
39899;DHT22;25571;47.876;10.642;2023-01-16T14:35:14;6.90;81.70
39899;DHT22;25571;47.876;10.642;2023-01-16T14:38:03;6.80;82.60
39899;DHT22;25571;47.876;10.642;2023-01-16T14:40:35;6.70;82.00
39899;DHT22;25571;47.876;10.642;2023-01-16T14:43:28;6.50;81.80
39899;DHT22;25571;47.876;10.642;2023-01-16T14:58:08;6.40;81.60
39899;DHT22;25571;47.876;10.642;2023-01-16T15:00:35;6.40;80.80
39899;DHT22;25571;47.876;10.642;2023-01-16T15:03:09;6.40;81.20
39899;DHT22;25571;47.876;10.642;2023-01-16T15:05:49;6.30;80.90
39899;DHT22;25571;47.876;10.642;2023-01-16T15:08:23;6.20;81.00
39899;DHT22;25571;47.876;10.642;2023-01-16T15:10:52;6.30;81.10
39899;DHT22;25571;47.876;10.642;2023-01-16T15:13:31;6.30;81.60
39899;DHT22;25571;47.876;10.642;2023-01-16T15:16:22;6.30;83.70
39899;DHT22;25571;47.876;10.642;2023-01-16T15:19:18;6.20;84.50
39899;DHT22;25571;47.876;10.642;2023-01-16T15:22:40;6.20;84.10
39899;DHT22;25571;47.876;10.642;2023-01-16T15:25:16;6.30;84.40
39899;DHT22;25571;47.876;10.642;2023-01-16T15:27:51;6.30;85.40
39899;DHT22;25571;47.876;10.642;2023-01-16T15:30:19;6.30;84.00
39899;DHT22;25571;47.876;10.642;2023-01-16T15:32:59;6.20;84.00
39899;DHT22;25571;47.876;10.642;2023-01-16T15:35:55;6.30;84.00
39899;DHT22;25571;47.876;10.642;2023-01-16T15:38:26;6.30;84.10
39899;DHT22;25571;47.876;10.642;2023-01-16T15:40:52;6.30;84.70
39899;DHT22;25571;47.876;10.642;2023-01-16T15:43:20;6.30;86.20
39899;DHT22;25571;47.876;10.642;2023-01-16T15:46:47;6.30;85.30
39899;DHT22;25571;47.876;10.642;2023-01-16T15:49:26;6.30;84.30
39899;DHT22;25571;47.876;10.642;2023-01-16T15:51:53;6.20;85.90
39899;DHT22;25571;47.876;10.642;2023-01-16T15:54:21;6.20;84.80
39899;DHT22;25571;47.876;10.642;2023-01-16T15:56:47;6.10;85.00
39899;DHT22;25571;47.876;10.642;2023-01-16T15:59:28;6.10;86.60
39899;DHT22;25571;47.876;10.642;2023-01-16T16:02:28;6.10;86.80
39899;DHT22;25571;47.876;10.642;2023-01-16T16:05:00;6.00;87.10
39899;DHT22;25571;47.876;10.642;2023-01-16T16:07:27;6.00;87.40
39899;DHT22;25571;47.876;10.642;2023-01-16T16:09:58;6.00;86.60
39899;DHT22;25571;47.876;10.642;2023-01-16T16:12:24;5.90;86.40
39899;DHT22;25571;47.876;10.642;2023-01-16T16:15:15;5.90;87.80
39899;DHT22;25571;47.876;10.642;2023-01-16T16:18:00;5.80;87.20
39899;DHT22;25571;47.876;10.642;2023-01-16T16:20:40;5.90;88.00
39899;DHT22;25571;47.876;10.642;2023-01-16T16:33:22;5.80;88.20
39899;DHT22;25571;47.876;10.642;2023-01-16T16:35:56;5.80;87.80
39899;DHT22;25571;47.876;10.642;2023-01-16T16:38:32;5.80;88.10
39899;DHT22;25571;47.876;10.642;2023-01-16T16:43:49;5.70;87.30
39899;DHT22;25571;47.876;10.642;2023-01-16T16:48:48;5.60;88.40
39899;DHT22;25571;47.876;10.642;2023-01-16T16:51:22;5.60;89.00
39899;DHT22;25571;47.876;10.642;2023-01-16T16:56:28;5.40;88.20
39899;DHT22;25571;47.876;10.642;2023-01-16T16:58:55;5.40;88.90
39899;DHT22;25571;47.876;10.642;2023-01-16T17:01:24;5.40;89.00
39899;DHT22;25571;47.876;10.642;2023-01-16T17:03:54;5.40;88.80
39899;DHT22;25571;47.876;10.642;2023-01-16T17:06:23;5.50;88.30
39899;DHT22;25571;47.876;10.642;2023-01-16T17:08:50;5.50;87.50
39899;DHT22;25571;47.876;10.642;2023-01-16T17:11:16;5.50;87.40
39899;DHT22;25571;47.876;10.642;2023-01-16T17:13:42;5.40;88.40
39899;DHT22;25571;47.876;10.642;2023-01-16T17:16:17;5.40;88.50
39899;DHT22;25571;47.876;10.642;2023-01-16T17:18:43;5.50;89.20
39899;DHT22;25571;47.876;10.642;2023-01-16T17:21:15;5.50;88.40
39899;DHT22;25571;47.876;10.642;2023-01-16T17:23:42;5.50;87.80
39899;DHT22;25571;47.876;10.642;2023-01-16T17:26:08;5.40;89.60
39899;DHT22;25571;47.876;10.642;2023-01-16T17:28:37;5.40;89.90
39899;DHT22;25571;47.876;10.642;2023-01-16T17:31:03;5.40;88.90
39899;DHT22;25571;47.876;10.642;2023-01-16T17:33:30;5.40;87.70
39899;DHT22;25571;47.876;10.642;2023-01-16T17:35:56;5.40;88.40
39899;DHT22;25571;47.876;10.642;2023-01-16T17:38:39;5.40;89.00
39899;DHT22;25571;47.876;10.642;2023-01-16T17:41:08;5.50;89.40
39899;DHT22;25571;47.876;10.642;2023-01-16T17:43:38;5.50;88.30
39899;DHT22;25571;47.876;10.642;2023-01-16T17:46:22;5.50;88.30
39899;DHT22;25571;47.876;10.642;2023-01-16T17:48:50;5.50;88.40
39899;DHT22;25571;47.876;10.642;2023-01-16T17:51:16;5.40;87.90
39899;DHT22;25571;47.876;10.642;2023-01-16T17:53:47;5.50;86.90
39899;DHT22;25571;47.876;10.642;2023-01-16T17:56:13;5.50;88.00
39899;DHT22;25571;47.876;10.642;2023-01-16T17:58:39;5.60;88.40
39899;DHT22;25571;47.876;10.642;2023-01-16T18:01:29;5.60;88.00
39899;DHT22;25571;47.876;10.642;2023-01-16T18:03:57;5.70;88.00
39899;DHT22;25571;47.876;10.642;2023-01-16T18:06:32;5.70;87.30
39899;DHT22;25571;47.876;10.642;2023-01-16T18:08:58;5.70;87.10
39899;DHT22;25571;47.876;10.642;2023-01-16T18:11:24;5.80;86.00
39899;DHT22;25571;47.876;10.642;2023-01-16T18:14:12;5.80;86.20
39899;DHT22;25571;47.876;10.642;2023-01-16T18:16:57;5.80;86.10
39899;DHT22;25571;47.876;10.642;2023-01-16T18:19:41;5.90;85.80
39899;DHT22;25571;47.876;10.642;2023-01-16T18:22:07;5.90;86.70
39899;DHT22;25571;47.876;10.642;2023-01-16T18:24:34;6.00;88.00
39899;DHT22;25571;47.876;10.642;2023-01-16T18:27:02;6.00;88.80